Time;durP1;ratioP1;P1;durP2;ratioP2;P2;SDS_P1;SDS_P2;PMS_P1;PMS_P2;Temp;Humidity;BMP_temperature;BMP_pressure;BME280_temperature;BME280_humidity;BME280_pressure;Samples;Min_cycle;Max_cycle;Signal;HPM_P1;HPM_P2
2021/12/26 00:00:27;;;;;;;21.08;13.50;;;3.40;99.90;;;2.25;100.00;96190.81;4991317;28;20072;-84
2021/12/26 00:02:53;;;;;;;22.13;13.70;;;3.30;99.90;;;2.35;100.00;96215.72;5008806;28;20037;-85
2021/12/26 00:05:20;;;;;;;20.63;12.75;;;3.30;99.90;;;2.41;100.00;96218.19;4991788;28;20029;-84
2021/12/26 00:07:47;;;;;;;20.05;13.13;;;3.30;99.90;;;2.34;100.00;96215.75;4988920;28;20033;-85
2021/12/26 00:10:15;;;;;;;26.70;13.75;;;3.30;99.90;;;2.35;100.00;96214.84;4992542;28;20029;-84
2021/12/26 00:12:41;;;;;;;18.42;13.50;;;3.30;99.90;;;2.22;100.00;96196.94;4987971;28;20517;-84
2021/12/26 00:15:08;;;;;;;18.98;12.70;;;3.20;99.90;;;2.21;100.00;96200.44;5001866;28;20036;-85
2021/12/26 00:17:34;;;;;;;16.55;11.70;;;3.30;99.90;;;2.38;100.00;96220.84;4992877;28;20035;-84
2021/12/26 00:20:00;;;;;;;32.67;13.68;;;3.20;99.90;;;2.24;100.00;96205.56;4995926;28;20509;-84
2021/12/26 00:22:26;;;;;;;18.80;12.77;;;3.20;99.90;;;2.17;100.00;96182.31;5003748;28;20041;-84
2021/12/26 00:24:52;;;;;;;19.88;12.93;;;3.20;99.90;;;2.15;100.00;96191.91;4996646;28;20037;-84
2021/12/26 00:27:19;;;;;;;29.50;14.68;;;3.20;99.90;;;2.13;100.00;96193.69;5002248;28;20040;-84
2021/12/26 00:29:46;;;;;;;26.67;13.77;;;3.10;99.90;;;2.13;100.00;96207.53;5018654;28;20037;-83
2021/12/26 00:32:12;;;;;;;19.48;12.80;;;3.10;99.90;;;2.19;100.00;96212.63;5003864;28;20038;-84
2021/12/26 00:34:38;;;;;;;55.95;14.40;;;3.10;99.90;;;2.14;100.00;96211.88;4987461;28;20021;-84
2021/12/26 00:37:06;;;;;;;30.92;14.15;;;3.10;99.90;;;2.17;100.00;96209.22;5005674;28;20041;-84
2021/12/26 00:39:33;;;;;;;16.38;11.90;;;3.10;99.90;;;2.15;100.00;96208.38;5006862;28;20600;-84
2021/12/26 00:42:00;;;;;;;21.85;12.85;;;3.10;99.90;;;2.20;100.00;96210.88;4989858;28;20045;-85
2021/12/26 00:44:25;;;;;;;20.38;12.40;;;3.10;99.90;;;2.05;100.00;96186.06;4997793;28;20025;-84
2021/12/26 00:46:53;;;;;;;30.33;12.32;;;3.10;99.90;;;2.22;100.00;96209.94;4996580;28;20044;-84
2021/12/26 00:49:21;;;;;;;19.65;12.30;;;3.10;99.90;;;2.16;100.00;96210.09;5015380;28;20029;-84
2021/12/26 00:51:47;;;;;;;21.45;13.13;;;3.10;99.90;;;2.02;100.00;96184.38;5017347;28;20057;-84
2021/12/26 00:54:13;;;;;;;57.15;13.93;;;3.10;99.90;;;2.09;100.00;96198.13;5006619;28;20029;-84
2021/12/26 00:56:39;;;;;;;17.42;12.23;;;3.10;99.90;;;2.08;100.00;96192.06;5006746;28;20095;-84
2021/12/26 00:59:05;;;;;;;37.20;12.35;;;3.10;99.90;;;2.12;100.00;96200.66;5007038;28;20041;-84
2021/12/26 01:01:31;;;;;;;29.75;13.13;;;3.10;99.90;;;1.99;100.00;96179.28;5006979;28;20029;-84
2021/12/26 01:03:56;;;;;;;17.25;11.18;;;3.10;99.90;;;2.21;100.00;96197.84;5039196;23;20048;-39
2021/12/26 01:06:23;;;;;;;16.02;9.93;;;3.10;99.90;;;2.22;100.00;96207.34;5031194;28;20029;-42
2021/12/26 01:08:51;;;;;;;34.03;10.93;;;3.10;99.90;;;2.15;100.00;96210.97;5026261;28;20116;-39
2021/12/26 01:11:34;;;;;;;26.48;10.88;;;3.10;99.90;;;2.15;100.00;96207.50;5021125;28;20364;-41
2021/12/26 01:14:00;;;;;;;13.73;9.55;;;3.10;99.90;;;2.18;100.00;96204.84;5023890;28;20509;-40
2021/12/26 01:16:27;;;;;;;30.27;11.88;;;3.10;99.90;;;2.15;100.00;96207.50;5021955;28;20042;-42
2021/12/26 01:19:00;;;;;;;22.55;9.57;;;3.10;99.90;;;2.17;100.00;96198.81;5025063;28;20556;-40
2021/12/26 01:21:26;;;;;;;;;;;3.10;99.90;;;2.26;100.00;96213.31;5024506;28;20486;-41
2021/12/26 01:23:57;;;;;;;17.52;9.18;;;3.10;99.90;;;2.21;100.00;96210.00;5024014;28;19923;-38
2021/12/26 01:26:23;;;;;;;15.38;9.25;;;3.10;99.90;;;2.22;100.00;96203.88;5024175;28;20487;-41
2021/12/26 01:28:49;;;;;;;17.77;10.32;;;3.10;99.90;;;2.20;100.00;96210.88;5023473;28;20039;-40
2021/12/26 01:31:18;;;;;;;30.73;10.23;;;3.10;99.90;;;2.17;100.00;96198.81;5023554;28;20037;-42
2021/12/26 01:33:46;;;;;;;15.70;9.80;;;3.10;99.90;;;2.20;100.00;96216.06;5023501;28;20025;-40
2021/12/26 01:36:12;;;;;;;19.90;10.52;;;3.10;99.90;;;2.32;100.00;96215.78;5024717;28;20033;-40
2021/12/26 01:38:38;;;;;;;30.92;11.38;;;3.10;99.90;;;2.16;100.00;96214.44;5025485;28;20035;-39
2021/12/26 01:41:10;;;;;;;16.63;10.80;;;3.10;99.90;;;2.15;100.00;96223.13;5027303;28;20115;-40
2021/12/26 01:43:40;;;;;;;16.45;11.02;;;3.10;99.90;;;2.10;100.00;96218.03;5023789;28;20051;-40
2021/12/26 01:46:07;;;;;;;17.58;11.05;;;3.10;99.90;;;2.12;100.00;96221.47;5023484;28;20120;-39
2021/12/26 01:48:33;;;;;;;16.88;11.35;;;3.00;99.90;;;2.16;100.00;96222.25;5024945;28;20034;-40
2021/12/26 01:50:59;;;;;;;16.15;10.93;;;3.00;99.90;;;2.13;100.00;96217.94;5023534;28;20120;-39
2021/12/26 01:53:35;;;;;;;15.65;10.65;;;3.00;99.90;;;2.18;100.00;96212.66;5025096;28;20108;-41
2021/12/26 01:56:01;;;;;;;14.30;10.30;;;3.10;99.90;;;2.26;100.00;96213.31;5024349;28;20029;-40
2021/12/26 01:58:29;;;;;;;16.40;10.63;;;3.10;99.90;;;2.24;100.00;96217.72;5023744;28;20045;-41
2021/12/26 02:01:00;;;;;;;15.63;10.55;;;3.10;99.90;;;2.16;100.00;96217.03;5024321;28;20040;-41
2021/12/26 02:03:27;;;;;;;14.82;9.25;;;3.10;99.90;;;2.21;100.00;96223.00;5025233;28;20095;-41
2021/12/26 02:05:53;;;;;;;13.95;9.45;;;3.20;99.90;;;2.28;100.00;96219.38;5024163;28;20071;-41
2021/12/26 02:08:19;;;;;;;16.27;10.85;;;3.10;99.90;;;2.21;100.00;96202.19;5025859;28;20029;-40
2021/12/26 02:10:45;;;;;;;15.30;10.95;;;3.20;99.90;;;2.26;100.00;96215.91;5024966;28;20045;-41
2021/12/26 02:13:11;;;;;;;12.82;9.15;;;3.20;99.90;;;2.28;100.00;96211.56;5021431;28;20091;-41
2021/12/26 02:15:37;;;;;;;13.70;9.95;;;3.20;99.90;;;2.32;100.00;96220.16;5019886;28;20034;-39
2021/12/26 02:18:06;;;;;;;15.55;10.57;;;3.20;99.90;;;2.19;100.00;96211.75;5016625;28;20033;-40
2021/12/26 02:23:26;;;;;;;14.95;9.82;;;3.20;99.90;;;2.26;100.00;96209.00;5022093;28;20036;-39
2021/12/26 02:28:41;;;;;;;15.93;10.32;;;3.20;99.90;;;2.23;100.00;96211.66;5023051;28;20029;-39
2021/12/26 02:31:07;;;;;;;14.50;10.00;;;3.10;99.90;;;2.16;100.00;96193.63;5021486;28;20499;-40
2021/12/26 02:33:35;;;;;;;13.95;9.90;;;3.10;99.90;;;2.16;100.00;96211.84;5023294;28;20036;-40
2021/12/26 02:36:01;;;;;;;15.07;10.40;;;3.10;99.90;;;2.15;100.00;96218.78;5022416;28;20025;-37
2021/12/26 02:38:27;;;;;;;15.82;10.50;;;3.10;99.90;;;2.22;100.00;96220.34;5023838;28;20358;-40
2021/12/26 02:40:55;;;;;;;14.40;10.30;;;3.10;99.90;;;2.17;100.00;96208.34;5021460;28;20120;-41
2021/12/26 02:43:24;;;;;;;34.53;12.30;;;3.10;99.90;;;2.17;100.00;96213.53;5023510;28;20038;-40
2021/12/26 02:45:50;;;;;;;15.70;10.60;;;3.10;99.90;;;2.21;100.00;96210.84;5023350;28;20029;-39
2021/12/26 02:48:17;;;;;;;15.80;10.93;;;3.10;99.90;;;2.19;100.00;96219.56;5022463;28;20107;-41
2021/12/26 02:50:44;;;;;;;18.08;11.77;;;3.10;99.90;;;2.09;100.00;96206.75;5021432;28;20483;-39
2021/12/26 02:53:20;;;;;;;16.15;9.90;;;3.10;99.90;;;2.14;100.00;96216.22;5024450;28;20065;-40
2021/12/26 02:55:50;;;;;;;17.17;11.13;;;3.00;99.90;;;2.08;100.00;96210.28;5022563;28;20479;-43
2021/12/26 02:58:16;;;;;;;18.77;11.40;;;3.00;99.90;;;2.13;100.00;96207.53;5021058;28;20237;-41
2021/12/26 03:01:01;;;;;;;16.42;11.18;;;3.00;99.90;;;2.17;100.00;96205.72;5024202;28;20406;-39
2021/12/26 03:03:26;;;;;;;20.65;12.15;;;3.10;99.90;;;2.15;100.00;96213.56;5020828;28;20109;-40
2021/12/26 03:06:02;;;;;;;19.63;12.63;;;3.10;99.90;;;2.12;100.00;96216.25;5022404;28;20187;-41
2021/12/26 03:08:28;;;;;;;16.35;10.98;;;3.00;99.90;;;2.15;100.00;96216.16;5024064;28;20156;-41
2021/12/26 03:10:54;;;;;;;22.85;12.98;;;3.10;99.90;;;2.13;100.00;96211.91;5021502;28;20116;-39
2021/12/26 03:13:21;;;;;;;17.40;10.95;;;3.00;99.90;;;2.16;100.00;96214.44;5038248;28;20025;-39
2021/12/26 03:15:47;;;;;;;18.10;10.52;;;3.00;99.90;;;2.21;100.00;96213.44;5026590;28;20521;-40
2021/12/26 03:18:13;;;;;;;16.63;10.95;;;3.10;99.90;;;2.27;100.00;96218.50;5025138;28;20045;-40
2021/12/26 03:20:47;;;;;;;17.25;10.63;;;3.10;99.90;;;2.34;100.00;96214.00;5017336;28;20569;-39
2021/12/26 03:23:17;;;;;;;16.08;10.90;;;3.20;99.90;;;2.37;100.00;96221.75;5016019;28;20039;-40
2021/12/26 03:25:43;;;;;;;14.60;9.98;;;3.20;99.90;;;2.36;100.00;96209.63;5022609;28;20051;-40
2021/12/26 03:28:10;;;;;;;15.88;11.52;;;3.20;99.90;;;2.40;100.00;96226.00;5020195;28;20368;-40
2021/12/26 03:30:36;;;;;;;13.05;9.98;;;3.20;99.90;;;2.35;100.00;96215.72;5022689;28;20033;-39
2021/12/26 03:33:06;;;;;;;15.77;10.85;;;3.20;99.90;;;2.42;100.00;96230.31;5023409;28;20172;-41
2021/12/26 03:35:33;;;;;;;15.18;10.55;;;3.30;99.90;;;2.38;100.00;96213.03;5019720;28;20037;-43
2021/12/26 03:38:00;;;;;;;15.27;10.45;;;3.30;99.90;;;2.46;100.00;96224.13;5023011;28;20038;-40
2021/12/26 03:40:26;;;;;;;13.40;9.48;;;3.30;99.90;;;2.51;100.00;96231.81;5021072;28;20100;-42
2021/12/26 03:42:53;;;;;;;15.10;10.10;;;3.30;99.90;;;2.51;100.00;96207.53;5020113;28;20029;-42
2021/12/26 03:45:20;;;;;;;15.90;10.57;;;3.30;99.90;;;2.54;100.00;96217.88;5021924;28;20550;-40
2021/12/26 03:47:49;;;;;;;14.85;10.25;;;3.40;99.90;;;2.52;100.00;96220.53;5021891;28;20057;-40
2021/12/26 03:50:16;;;;;;;14.63;10.50;;;3.40;99.90;;;2.57;100.00;96221.28;5025457;28;20037;-40
2021/12/26 03:52:42;;;;;;;16.92;10.80;;;3.40;99.90;;;2.56;100.00;96213.50;5021336;28;20033;-39
2021/12/26 03:55:08;;;;;;;17.17;11.30;;;3.40;99.90;;;2.45;100.00;96211.16;5021934;28;20209;-41
2021/12/26 03:57:34;;;;;;;17.75;10.52;;;3.40;99.90;;;2.42;100.00;96214.69;5020439;28;20691;-40
2021/12/26 04:00:00;;;;;;;15.98;10.48;;;3.30;99.90;;;2.52;100.00;96217.06;5020576;28;20029;-40
2021/12/26 04:02:25;;;;;;;12.93;9.25;;;3.30;99.90;;;2.49;100.00;96215.38;5020531;28;20410;-40
2021/12/26 04:04:53;;;;;;;15.68;11.02;;;3.40;99.90;;;2.54;100.00;96215.28;5019691;28;20061;-42
2021/12/26 04:07:19;;;;;;;16.55;10.45;;;3.40;99.90;;;2.55;100.00;96220.47;5022172;28;20040;-40
2021/12/26 04:09:45;;;;;;;16.83;11.15;;;3.40;99.90;;;2.60;100.00;96217.72;5022391;28;20387;-42
2021/12/26 04:12:11;;;;;;;15.57;11.27;;;3.40;99.90;;;2.60;100.00;96218.59;5022171;28;20095;-41
2021/12/26 04:14:37;;;;;;;19.75;12.77;;;3.40;99.90;;;2.64;100.00;96211.56;5019711;28;20091;-40
2021/12/26 04:17:03;;;;;;;18.40;12.05;;;3.40;99.90;;;2.64;100.00;96217.63;5021548;28;20497;-40
2021/12/26 04:19:29;;;;;;;16.92;11.43;;;3.40;99.90;;;2.64;100.00;96219.38;5021968;28;20117;-38
2021/12/26 04:21:54;;;;;;;17.58;12.07;;;3.40;99.90;;;2.50;100.00;96192.84;5021350;28;20116;-39
2021/12/26 04:24:21;;;;;;;15.40;10.52;;;3.50;99.90;;;2.63;100.00;96222.88;5020647;28;20033;-40
2021/12/26 04:26:47;;;;;;;15.50;10.60;;;3.50;99.90;;;2.61;100.00;96214.25;5021122;28;20034;-40
2021/12/26 04:29:13;;;;;;;18.67;11.68;;;3.40;99.90;;;2.58;100.00;96217.75;5019299;28;20178;-38
2021/12/26 04:31:39;;;;;;;17.17;11.93;;;3.40;99.90;;;2.65;100.00;96215.88;5019055;28;21548;-40
2021/12/26 04:34:05;;;;;;;18.98;12.63;;;3.40;99.90;;;2.62;100.00;96214.22;5019473;28;20501;-41
2021/12/26 04:36:32;;;;;;;16.63;11.77;;;3.50;99.90;;;2.60;100.00;96207.31;5015697;28;20033;-41
2021/12/26 04:38:58;;;;;;;17.15;12.07;;;3.50;99.90;;;2.65;100.00;96221.06;5014263;28;20029;-41
2021/12/26 04:41:23;;;;;;;16.98;11.63;;;3.50;99.90;;;2.62;100.00;96216.81;5016356;28;20041;-41
2021/12/26 04:43:49;;;;;;;18.45;11.85;;;3.40;99.90;;;2.54;100.00;96199.66;5022458;28;20041;-43
2021/12/26 04:46:15;;;;;;;17.00;11.02;;;3.40;99.90;;;2.51;100.00;96197.97;5021651;28;20442;-41
2021/12/26 04:48:44;;;;;;;18.73;12.18;;;3.40;99.90;;;2.58;100.00;96216.91;5025578;28;20025;-41
2021/12/26 04:51:12;;;;;;;19.95;12.00;;;3.40;99.90;;;2.61;100.00;96215.09;5025507;28;20128;-41
2021/12/26 04:53:40;;;;;;;18.25;12.15;;;3.40;99.90;;;2.65;100.00;96211.50;5024196;28;20017;-41
2021/12/26 04:56:07;;;;;;;21.67;12.48;;;3.40;99.90;;;2.62;100.00;96202.94;5026865;28;20037;-41
2021/12/26 04:58:34;;;;;;;15.73;11.45;;;3.50;99.90;;;2.73;100.00;96213.06;5024821;28;20446;-39
2021/12/26 05:01:01;;;;;;;18.95;13.18;;;3.50;99.90;;;2.74;100.00;96223.44;5026848;28;20091;-41
2021/12/26 05:03:27;;;;;;;18.77;12.30;;;3.50;99.90;;;2.75;100.00;96217.34;5025229;28;20056;-42
2021/12/26 05:05:52;;;;;;;18.48;13.27;;;3.50;99.90;;;2.72;100.00;96207.00;5025150;28;20403;-40
2021/12/26 05:08:18;;;;;;;18.67;12.23;;;3.60;99.90;;;2.76;100.00;96221.66;5017102;28;20037;-40
2021/12/26 05:10:45;;;;;;;17.23;11.80;;;3.60;99.90;;;2.65;100.00;96213.28;5015485;28;20132;-43
2021/12/26 05:13:11;;;;;;;17.38;12.55;;;3.60;99.90;;;2.69;100.00;96209.69;5018807;28;20033;-41
2021/12/26 05:15:37;;;;;;;16.63;11.60;;;3.60;99.90;;;2.75;100.00;96226.94;5015860;28;20025;-40
2021/12/26 05:18:04;;;;;;;17.90;12.32;;;3.60;99.90;;;2.77;100.00;96220.78;5016351;28;20053;-40
2021/12/26 05:20:31;;;;;;;18.60;12.77;;;3.60;99.90;;;2.79;100.00;96211.19;5017159;28;20132;-41
2021/12/26 05:22:58;;;;;;;22.13;14.65;;;3.60;99.90;;;2.86;100.00;96215.34;5016444;28;20104;-41
2021/12/26 05:25:26;;;;;;;20.70;13.65;;;3.60;99.90;;;2.87;100.00;96216.19;5016519;28;20060;-42
2021/12/26 05:27:53;;;;;;;19.73;13.30;;;3.70;99.90;;;2.88;100.00;96222.25;5020167;28;20030;-40
2021/12/26 05:30:21;;;;;;;17.92;12.23;;;3.60;99.90;;;2.86;100.00;96217.09;5017674;28;20056;-39
2021/12/26 05:32:46;;;;;;;17.80;12.55;;;3.60;99.90;;;2.84;100.00;96218.88;5018653;28;20501;-39
2021/12/26 05:35:15;;;;;;;18.83;12.98;;;3.70;99.90;;;2.81;100.00;96219.78;5019716;28;20057;-40
2021/12/26 05:37:41;;;;;;;19.45;12.15;;;3.60;99.90;;;2.74;100.00;96218.25;5021378;28;20044;-40
2021/12/26 05:40:09;;;;;;;17.10;12.32;;;3.60;99.90;;;2.73;100.00;96220.88;5024119;28;20373;-39
2021/12/26 05:42:35;;;;;;;14.93;10.55;;;3.60;99.90;;;2.74;100.00;96213.03;5021240;28;20056;-39
2021/12/26 05:45:01;;;;;;;19.23;12.38;;;3.60;99.90;;;2.74;100.00;96217.41;5015229;28;20059;-40
2021/12/26 05:47:27;;;;;;;18.15;12.68;;;3.50;99.90;;;2.78;100.00;96212.09;5016678;28;20037;-39
2021/12/26 05:49:53;;;;;;;20.95;14.00;;;3.60;99.90;;;2.84;100.00;96219.72;5019979;28;20407;-39
2021/12/26 05:52:20;;;;;;;18.33;12.68;;;3.60;99.90;;;2.75;100.00;96204.34;5016468;28;20652;-41
2021/12/26 05:54:49;;;;;;;17.27;11.90;;;3.60;99.90;;;2.75;100.00;96206.94;5015572;28;20021;-42
2021/12/26 05:57:16;;;;;;;18.15;11.73;;;3.60;99.90;;;2.75;100.00;96201.75;5017140;28;20108;-39
2021/12/26 05:59:43;;;;;;;16.27;11.57;;;3.60;99.90;;;2.74;100.00;96204.38;5017863;28;20033;-39
2021/12/26 06:02:10;;;;;;;19.58;12.00;;;3.60;99.90;;;2.77;100.00;96215.56;5015526;28;20044;-41
2021/12/26 06:04:35;;;;;;;19.13;12.60;;;3.60;99.90;;;2.73;100.00;96215.66;5013985;28;20136;-41
2021/12/26 06:07:01;;;;;;;17.35;12.25;;;3.60;99.90;;;2.72;100.00;96220.03;5015577;28;20714;-39
2021/12/26 06:09:27;;;;;;;17.65;11.93;;;3.60;99.90;;;2.77;100.00;96215.56;5016381;28;20095;-41
2021/12/26 06:11:53;;;;;;;18.67;12.68;;;3.60;99.90;;;2.81;100.00;96217.19;5019893;28;20025;-42
2021/12/26 06:14:19;;;;;;;20.13;12.93;;;3.60;99.90;;;2.84;100.00;96206.72;5015816;28;20505;-40
2021/12/26 06:16:45;;;;;;;18.80;12.88;;;3.60;99.90;;;2.89;100.00;96211.81;5016820;28;20041;-42
2021/12/26 06:19:10;;;;;;;19.33;13.35;;;3.70;99.90;;;2.90;100.00;96213.50;5016596;28;20148;-41
2021/12/26 06:21:36;;;;;;;19.08;12.23;;;3.70;99.90;;;2.91;100.00;96203.94;5014128;28;20148;-41
2021/12/26 06:24:02;;;;;;;18.55;12.68;;;3.70;99.90;;;2.66;100.00;96171.59;5016803;28;20086;-39
2021/12/26 06:26:29;;;;;;;20.63;12.88;;;3.70;99.90;;;2.89;100.00;96206.59;5016168;28;20033;-39
2021/12/26 06:28:55;;;;;;;17.92;12.68;;;3.70;99.90;;;2.92;100.00;96213.47;5016022;28;20055;-41
2021/12/26 06:31:21;;;;;;;22.63;12.75;;;3.70;99.90;;;2.94;100.00;96217.72;5018019;28;20540;-39
2021/12/26 06:33:48;;;;;;;20.77;14.15;;;3.70;99.90;;;2.95;100.00;96211.66;5015233;28;20462;-41
2021/12/26 06:36:15;;;;;;;17.98;12.38;;;3.70;99.90;;;2.94;100.00;96209.91;5015684;28;20033;-41
2021/12/26 06:38:43;;;;;;;18.05;12.93;;;3.70;99.90;;;2.95;100.00;96216.84;5015043;28;20182;-40
2021/12/26 06:41:12;;;;;;;18.70;12.48;;;3.70;99.90;;;2.82;100.00;96207.66;5017238;28;20029;-42
2021/12/26 06:43:38;;;;;;;16.23;11.52;;;3.70;99.90;;;2.92;100.00;96218.69;5015875;28;20556;-40
2021/12/26 06:46:05;;;;;;;18.33;11.75;;;3.70;99.90;;;2.93;100.00;96215.19;5017245;28;20387;-37
2021/12/26 06:48:32;;;;;;;20.00;13.07;;;3.70;99.90;;;2.94;100.00;96220.34;5013160;28;20037;-38
2021/12/26 06:50:58;;;;;;;20.90;13.15;;;3.70;99.90;;;2.95;100.00;96213.41;5016374;28;20041;-40
2021/12/26 06:53:24;;;;;;;20.38;13.50;;;3.70;99.90;;;2.93;100.00;96223.84;5015732;28;21774;-41
2021/12/26 06:55:49;;;;;;;22.27;14.18;;;3.70;99.90;;;2.88;100.00;96212.69;5009772;28;20343;-41
2021/12/26 06:58:15;;;;;;;19.88;12.98;;;3.70;99.90;;;3.00;100.00;96232.38;5014571;28;20403;-42
2021/12/26 07:00:42;;;;;;;20.10;12.80;;;3.70;99.90;;;3.03;100.00;96232.28;5014903;28;20077;-40
2021/12/26 07:03:08;;;;;;;18.98;11.90;;;3.80;99.90;;;3.07;100.00;96241.75;5015594;28;20095;-41
2021/12/26 07:05:35;;;;;;;19.92;12.60;;;3.80;99.90;;;3.11;100.00;96229.50;5015091;28;20044;-41
2021/12/26 07:08:01;;;;;;;19.83;12.23;;;3.80;99.90;;;3.12;100.00;96239.84;5014579;28;20029;-39
2021/12/26 07:10:27;;;;;;;17.35;12.35;;;3.90;99.90;;;3.10;100.00;96228.63;5014792;28;20037;-40
2021/12/26 07:12:53;;;;;;;17.40;11.20;;;3.90;99.90;;;3.08;100.00;96238.22;5046058;22;20052;-45
2021/12/26 07:15:19;;;;;;;16.00;10.50;;;3.90;99.90;;;2.99;100.00;96226.28;5019373;28;20045;-46
2021/12/26 07:17:45;;;;;;;17.33;11.25;;;3.90;99.90;;;3.09;100.00;96237.34;5020829;28;20040;-46
2021/12/26 07:20:14;;;;;;;17.85;11.98;;;3.90;99.90;;;3.14;100.00;96234.59;5024046;28;20605;-46
2021/12/26 07:22:40;;;;;;;21.83;12.85;;;3.90;99.90;;;3.17;100.00;96230.16;5018800;28;20040;-46
2021/12/26 07:25:07;;;;;;;20.92;12.65;;;3.90;99.90;;;3.19;100.00;96237.94;5016762;28;20037;-45
2021/12/26 07:27:33;;;;;;;19.17;11.93;;;4.00;99.90;;;3.21;100.00;96242.22;5015485;28;20722;-45
2021/12/26 07:30:02;;;;;;;22.63;14.20;;;3.90;99.90;;;3.25;100.00;96248.22;5019719;28;20044;-47
2021/12/26 07:32:28;;;;;;;23.63;14.05;;;4.00;99.90;;;3.29;100.00;96241.19;5021275;28;20049;-44
2021/12/26 07:34:55;;;;;;;20.80;12.98;;;4.00;99.90;;;3.28;100.00;96236.84;5021711;28;20025;-44
2021/12/26 07:37:21;;;;;;;21.70;13.88;;;4.00;99.90;;;3.37;100.00;96244.41;5018633;28;20565;-47
2021/12/26 07:39:46;;;;;;;20.30;12.77;;;4.10;99.90;;;3.40;100.00;96255.59;5018386;28;20039;-45
2021/12/26 07:42:12;;;;;;;19.08;12.63;;;4.10;99.90;;;3.41;100.00;96256.47;5022819;28;20083;-46
2021/12/26 07:44:38;;;;;;;18.92;12.27;;;4.20;99.90;;;3.44;100.00;96256.38;5020199;28;20032;-46
2021/12/26 07:47:06;;;;;;;19.23;12.30;;;4.20;99.90;;;3.49;100.00;96261.47;5020443;28;20028;-47
2021/12/26 07:49:32;;;;;;;17.17;11.15;;;4.20;99.90;;;3.51;100.00;96255.31;5019185;28;20037;-49
2021/12/26 07:51:58;;;;;;;16.83;10.93;;;4.20;99.90;;;3.52;100.00;96258.81;5021019;28;20045;-46
2021/12/26 07:54:25;;;;;;;19.90;12.48;;;4.30;99.90;;;3.56;100.00;96266.47;5004710;28;20025;-48
2021/12/26 07:56:52;;;;;;;17.05;11.43;;;4.30;99.90;;;3.59;100.00;96265.56;5022805;28;20481;-45
2021/12/26 07:59:18;;;;;;;16.85;11.63;;;4.30;99.90;;;3.63;100.00;96265.41;5018873;28;20029;-49
2021/12/26 08:01:44;;;;;;;20.05;12.07;;;4.40;99.90;;;3.64;100.00;96266.25;5014768;28;20052;-47
2021/12/26 08:04:12;;;;;;;18.50;11.63;;;4.40;99.90;;;3.63;100.00;96265.41;4999289;28;20033;-47
2021/12/26 08:06:39;;;;;;;17.90;11.85;;;4.40;99.90;;;3.67;100.00;96267.94;5022901;28;20236;-49
2021/12/26 08:09:06;;;;;;;19.80;12.25;;;4.40;99.90;;;3.69;100.00;96264.38;5019280;28;20021;-47
2021/12/26 08:11:32;;;;;;;19.67;13.00;;;4.40;99.90;;;3.69;100.00;96269.59;5020298;28;20038;-46
2021/12/26 08:13:58;;;;;;;19.30;12.35;;;4.40;99.90;;;3.69;100.00;96269.59;5022027;28;20095;-46
2021/12/26 08:16:26;;;;;;;21.23;12.57;;;4.40;99.90;;;3.71;100.00;96261.75;5019269;28;20032;-48
2021/12/26 08:18:53;;;;;;;22.73;13.32;;;4.50;99.90;;;3.77;100.00;96275.47;5020208;28;20822;-46
2021/12/26 08:21:19;;;;;;;22.50;13.30;;;4.50;99.90;;;3.82;100.00;96265.75;5020374;28;20025;-46
2021/12/26 08:23:45;;;;;;;24.73;14.00;;;4.60;99.90;;;3.85;100.00;96262.19;5015480;28;20040;-45
2021/12/26 08:26:11;;;;;;;22.83;13.73;;;4.60;99.90;;;3.96;100.00;96270.56;5023406;28;20057;-46
2021/12/26 08:28:37;;;;;;;24.70;14.35;;;4.70;99.90;;;4.04;100.00;96274.72;5021485;28;20078;-45
2021/12/26 08:31:03;;;;;;;23.02;14.13;;;4.70;99.90;;;4.05;100.00;96273.81;5020607;28;20497;-45
2021/12/26 08:33:29;;;;;;;24.40;14.95;;;4.80;99.90;;;4.12;100.00;96268.38;5020902;28;20041;-48
2021/12/26 08:35:55;;;;;;;21.83;14.27;;;4.90;99.90;;;4.19;100.00;96269.91;5004562;28;20824;-45
2021/12/26 08:38:21;;;;;;;23.63;15.05;;;4.90;99.90;;;4.24;100.00;96263.72;5016193;28;20453;-48
2021/12/26 08:40:53;;;;;;;20.42;13.02;;;5.00;99.90;;;4.35;100.00;96274.66;5023366;28;20402;-46
2021/12/26 08:43:20;;;;;;;23.80;14.00;;;5.10;99.90;;;4.40;100.00;96278.84;5018386;28;20041;-48
2021/12/26 08:45:46;;;;;;;21.05;13.35;;;5.10;99.90;;;4.46;100.00;96279.56;5017493;28;20506;-45
2021/12/26 08:48:12;;;;;;;22.27;13.85;;;5.10;99.90;;;4.54;100.00;96278.44;5016833;28;20116;-45
2021/12/26 08:50:38;;;;;;;22.55;14.27;;;5.20;99.90;;;4.62;100.00;96275.56;5022047;28;20117;-45
2021/12/26 08:53:05;;;;;;;23.83;14.15;;;5.30;99.90;;;4.74;100.00;96269.97;5022012;28;20449;-46
2021/12/26 08:55:31;;;;;;;21.15;12.18;;;5.40;99.90;;;4.84;100.00;96273.13;5019382;28;20436;-47
2021/12/26 08:57:58;;;;;;;24.45;15.13;;;5.50;99.90;;;4.93;100.00;96278.03;5019745;28;20080;-46
2021/12/26 09:00:24;;;;;;;22.17;13.75;;;5.60;99.90;;;4.97;100.00;96278.78;5019004;28;20032;-45
2021/12/26 09:02:51;;;;;;;21.98;13.15;;;5.70;99.90;;;5.04;100.00;96274.22;5019239;28;20044;-46
2021/12/26 09:05:17;;;;;;;22.48;14.10;;;5.70;99.90;;;5.09;100.00;96273.16;5022230;28;20038;-45
2021/12/26 09:07:43;;;;;;;20.92;12.73;;;5.80;99.90;;;5.18;100.00;96281.63;5019908;28;20478;-45
2021/12/26 09:10:12;;;;;;;20.98;13.60;;;5.90;99.90;;;5.26;100.00;96283.06;5019506;28;20080;-46
2021/12/26 09:12:38;;;;;;;26.42;14.30;;;5.90;99.90;;;5.31;100.00;96288.13;5016877;28;20045;-48
2021/12/26 09:15:07;;;;;;;23.15;14.52;;;6.00;99.90;;;5.34;100.00;96286.28;4997982;28;20503;-45
2021/12/26 09:17:33;;;;;;;22.92;13.30;;;6.10;99.90;;;5.39;100.00;96280.06;5017909;28;20037;-46
2021/12/26 09:19:59;;;;;;;20.27;13.55;;;6.10;99.90;;;5.49;100.00;96278.81;5022440;28;20120;-47
2021/12/26 09:22:25;;;;;;;21.13;14.07;;;6.10;99.90;;;5.56;100.00;96280.28;4996419;28;20033;-43
2021/12/26 09:24:51;;;;;;;22.23;14.48;;;6.20;99.90;;;5.57;100.00;96284.63;5017113;28;20030;-46
2021/12/26 09:27:18;;;;;;;20.50;12.27;;;6.20;99.90;;;5.67;100.00;96285.16;5020105;28;20029;-47
2021/12/26 09:29:44;;;;;;;20.48;13.10;;;6.30;99.90;;;5.76;100.00;96290.09;5024067;28;20026;-47
2021/12/26 09:32:09;;;;;;;26.58;14.50;;;6.40;99.90;;;5.82;100.00;96289.84;5023039;28;20385;-46
2021/12/26 09:34:36;;;;;;;22.20;14.07;;;6.50;99.90;;;5.84;100.00;96284.56;5026485;28;20467;-46
2021/12/26 09:37:04;;;;;;;23.17;14.57;;;6.50;99.90;;;5.97;100.00;96295.47;5023609;28;20080;-45
2021/12/26 09:39:30;;;;;;;22.90;14.52;;;6.60;99.90;;;6.07;100.00;96302.09;5004284;28;20044;-45
2021/12/26 09:41:56;;;;;;;22.15;13.60;;;6.70;99.90;;;6.14;100.00;96300.09;5022023;28;20049;-45
2021/12/26 09:44:23;;;;;;;22.13;14.43;;;6.80;99.90;;;6.23;100.00;96305.00;5023521;28;20561;-45
2021/12/26 09:46:49;;;;;;;22.35;14.45;;;6.80;99.90;;;6.24;100.00;96294.44;5022722;28;20031;-46
2021/12/26 09:49:15;;;;;;;22.02;14.52;;;6.90;99.90;;;6.25;100.00;96297.94;5024304;28;20042;-44
2021/12/26 09:51:41;;;;;;;20.42;12.85;;;6.90;99.90;;;6.33;100.00;96292.41;5015125;28;20439;-45
2021/12/26 09:54:08;;;;;;;22.90;13.70;;;6.90;99.90;;;6.25;100.00;96295.31;5016759;28;20310;-45
2021/12/26 09:56:35;;;;;;;22.42;13.55;;;6.90;99.90;;;6.22;100.00;96291.03;5021846;28;20034;-48
2021/12/26 09:59:14;;;;;;;19.70;12.25;;;6.90;99.90;;;6.21;100.00;96284.13;5004145;28;20036;-46
2021/12/26 10:01:53;;;;;;;20.73;14.00;;;6.80;99.90;;;6.21;100.00;96284.13;5022231;28;20124;-45
2021/12/26 10:04:31;;;;;;;18.80;12.55;;;6.80;99.90;;;6.20;100.00;96282.38;5023255;28;20033;-45
2021/12/26 10:07:25;;;;;;;21.15;13.60;;;6.90;99.90;;;6.23;100.00;96278.81;5022253;28;20117;-48
2021/12/26 10:09:52;;;;;;;19.25;12.50;;;6.90;99.90;;;6.30;100.00;96275.06;5023601;28;20042;-46
2021/12/26 10:12:20;;;;;;;20.42;13.32;;;6.90;99.90;;;6.45;100.00;96268.38;5020670;28;20125;-47
2021/12/26 10:14:55;;;;;;;20.65;13.32;;;7.10;99.90;;;6.56;100.00;96265.34;5022862;28;20029;-46
2021/12/26 10:17:26;;;;;;;19.10;12.20;;;7.20;99.90;;;6.61;100.00;96256.38;5015377;28;20435;-46